createdAt,value
2022-11-28T01:12:37.062Z,7.33
2022-11-28T01:15:05.605Z,7.31
2022-11-28T01:20:20.036Z,7.70
2022-11-28T01:22:46.740Z,7.69
2022-11-28T01:25:13.831Z,7.77
2022-11-28T06:59:51.672Z,6.46
2022-11-28T07:02:20.300Z,6.56
2022-11-28T07:04:47.089Z,6.24
2022-11-28T07:07:16.492Z,5.97
2022-11-28T07:09:44.358Z,6.20
2022-11-28T07:12:11.255Z,6.58
2022-11-28T07:19:54.651Z,6.17
2022-11-28T07:22:22.341Z,5.81
2022-11-28T07:24:48.891Z,5.87
2022-11-28T07:27:16.129Z,6.10
2022-11-28T07:29:44.317Z,5.78
2022-11-28T07:32:11.257Z,5.89
2022-11-28T07:38:25.383Z,6.16
2022-11-28T07:40:52.006Z,6.08
2022-11-28T07:43:18.577Z,6.21
2022-11-28T07:45:59.884Z,5.98
2022-11-28T07:48:49.576Z,5.80
2022-11-28T07:51:23.015Z,6.24
2022-11-28T07:53:50.015Z,6.00
2022-11-28T07:56:19.738Z,5.88
2022-11-28T07:58:47.380Z,5.82
2022-11-28T08:01:16.881Z,5.39
2022-11-28T08:03:44.844Z,5.60
2022-11-28T08:06:12.723Z,5.70
2022-11-28T08:08:39.513Z,5.35
2022-11-28T08:11:08.147Z,5.55
2022-11-28T08:13:36.711Z,5.92
2022-11-28T08:16:06.670Z,6.07
2022-11-28T08:33:13.805Z,6.10
2022-11-28T08:35:40.856Z,6.10
2022-11-28T08:38:07.515Z,5.87
2022-11-28T08:40:34.128Z,5.68
2022-11-28T08:43:00.722Z,5.98
2022-11-28T08:45:27.286Z,5.77
2022-11-28T08:47:53.829Z,5.85
2022-11-28T08:50:20.556Z,5.86
2022-11-28T08:53:11.876Z,5.28
2022-11-28T08:55:41.982Z,5.91
2022-11-28T08:58:08.741Z,5.75
2022-11-28T09:00:35.581Z,5.61
2022-11-28T09:13:42.781Z,5.99
2022-11-28T09:16:12.317Z,5.65
2022-11-28T09:18:41.923Z,5.63
2022-11-28T09:24:06.394Z,5.45
2022-11-28T09:26:33.398Z,5.69
2022-11-28T09:29:00.347Z,5.28
2022-11-28T09:31:27.373Z,5.11
2022-11-28T09:37:50.038Z,5.70
2022-11-28T09:40:36.601Z,5.14
2022-11-28T09:43:06.776Z,5.26
2022-11-28T09:48:39.151Z,5.73
2022-11-28T09:51:40.913Z,5.35
2022-11-28T09:54:39.738Z,5.10
2022-11-28T09:57:14.503Z,5.85
2022-11-28T09:59:41.347Z,5.39
2022-11-28T10:02:19.683Z,4.90
2022-11-28T10:05:13.194Z,5.11
2022-11-28T10:08:02.802Z,5.30
2022-11-28T10:10:32.300Z,5.45
2022-11-28T10:14:06.592Z,5.56
2022-11-28T10:16:53.505Z,5.42
2022-11-28T10:19:54.339Z,5.20
2022-11-28T10:23:14.340Z,5.54
2022-11-28T10:26:39.469Z,6.16
2022-11-28T11:41:29.911Z,6.20
2022-11-28T11:43:57.452Z,6.56
2022-11-28T11:46:24.075Z,6.60
2022-11-28T11:48:52.746Z,6.81
2022-11-28T11:51:35.214Z,6.72
2022-11-28T11:54:20.826Z,6.19
2022-11-28T11:57:00.650Z,5.98
2022-11-28T11:59:45.906Z,6.08
2022-11-28T12:02:46.147Z,5.81
2022-11-28T12:06:12.126Z,6.10
2022-11-28T12:08:43.673Z,6.20
2022-11-28T12:11:15.888Z,6.48
2022-11-28T12:13:42.869Z,5.86
2022-11-28T12:16:30.125Z,6.29
2022-11-28T12:19:15.569Z,6.21
2022-11-28T12:30:01.700Z,6.26
2022-11-28T12:32:49.517Z,6.91
2022-11-28T12:42:25.694Z,6.23
2022-11-28T12:45:07.557Z,6.18
2022-11-28T12:47:52.567Z,6.57
2022-11-28T12:50:51.199Z,6.53
2022-11-28T12:53:32.948Z,6.69
2022-11-28T12:56:49.763Z,6.65
2022-11-28T12:59:40.134Z,6.86
2022-11-28T13:02:41.365Z,6.85
2022-11-28T13:05:20.164Z,6.55
2022-11-28T13:21:50.217Z,6.20
2022-11-28T13:24:35.170Z,6.61
2022-11-28T13:27:36.060Z,6.74
2022-11-28T13:30:09.331Z,7.19
2022-11-28T13:33:00.203Z,6.76
2022-11-28T13:35:34.225Z,6.45
2022-11-28T13:41:52.737Z,6.95
2022-11-28T13:44:43.245Z,6.83
2022-11-28T14:29:39.911Z,6.31
2022-11-28T14:32:29.428Z,6.32
2022-11-28T14:34:54.904Z,6.17
2022-11-28T14:37:21.810Z,6.03
2022-11-28T14:39:49.798Z,5.87
2022-11-28T14:42:36.950Z,5.99
2022-11-28T14:45:23.060Z,6.19
2022-11-28T14:48:18.034Z,6.45
2022-11-28T14:50:59.067Z,6.24
2022-11-28T14:53:33.352Z,5.50
2022-11-28T14:56:29.408Z,5.78
2022-11-28T14:58:58.950Z,6.04
2022-11-28T15:01:57.040Z,5.68
2022-11-28T15:04:47.996Z,5.81
2022-11-28T15:07:52.120Z,5.69
2022-11-28T15:10:21.543Z,5.55
2022-11-28T15:12:51.914Z,5.78
2022-11-28T15:17:55.144Z,5.53
2022-11-28T15:20:29.547Z,5.36
2022-11-28T15:22:56.160Z,5.51
2022-11-28T15:25:37.229Z,5.50
2022-11-28T15:28:18.094Z,5.53
2022-11-28T15:30:53.323Z,5.19
2022-11-28T15:33:21.068Z,4.71
2022-11-28T15:36:02.572Z,4.75
2022-11-28T15:38:34.650Z,4.85
2022-11-28T15:41:01.474Z,4.70
2022-11-28T15:43:30.613Z,4.98
2022-11-28T15:46:03.638Z,5.10
2022-11-28T15:48:39.370Z,4.64
2022-11-28T15:51:07.594Z,4.87
2022-11-28T15:53:41.309Z,4.29
2022-11-28T15:56:14.591Z,4.76
2022-11-28T15:58:43.269Z,4.97
2022-11-28T16:01:18.141Z,4.82
2022-11-28T16:03:49.949Z,4.76
2022-11-28T16:06:18.742Z,4.86
2022-11-28T16:08:59.145Z,4.75
2022-11-28T16:11:43.992Z,4.78
2022-11-28T16:14:11.332Z,4.91
2022-11-28T16:19:40.224Z,4.85
2022-11-28T16:22:11.194Z,5.17
2022-11-28T16:24:51.203Z,4.86
2022-11-28T16:27:45.662Z,4.59
2022-11-28T16:30:47.889Z,4.27
2022-11-28T16:33:43.423Z,4.74
2022-11-28T16:36:16.162Z,4.50
2022-11-28T16:38:44.584Z,4.12
2022-11-28T16:41:25.911Z,4.13
2022-11-28T16:44:05.828Z,4.17
2022-11-28T16:46:41.106Z,4.26
2022-11-28T16:49:37.644Z,4.00
2022-11-28T16:52:27.407Z,4.09
2022-11-28T16:54:55.318Z,4.21
2022-11-28T16:57:22.903Z,3.82
2022-11-28T16:59:58.364Z,4.01
2022-11-28T17:02:28.924Z,4.42
2022-11-28T17:36:03.378Z,3.79
2022-11-28T17:38:32.915Z,3.28
2022-11-28T17:41:03.026Z,3.33
2022-11-28T17:43:32.396Z,2.84
2022-11-28T17:46:02.725Z,3.35
2022-11-28T17:48:31.877Z,2.90
2022-11-28T17:50:59.409Z,3.04
2022-11-28T17:53:25.967Z,2.89
2022-11-28T17:55:58.363Z,2.70
2022-11-28T17:58:26.002Z,2.97
2022-11-28T18:00:59.945Z,3.46
2022-11-28T18:03:28.548Z,2.60
2022-11-28T18:05:55.202Z,2.84
2022-11-28T18:08:22.551Z,2.94
2022-11-28T18:13:47.107Z,3.37
2022-11-28T18:18:49.618Z,3.28
2022-11-28T18:21:16.758Z,3.41
2022-11-28T18:23:46.165Z,2.76
2022-11-28T18:26:15.171Z,2.66
2022-11-28T18:28:44.884Z,2.28
2022-11-28T18:31:25.796Z,3.06
2022-11-28T18:33:56.264Z,2.62
2022-11-28T18:36:27.804Z,2.61
2022-11-28T18:38:55.938Z,2.25
2022-11-28T18:41:22.616Z,2.64
2022-11-28T18:43:49.374Z,2.08
2022-11-28T18:46:19.221Z,2.78
2022-11-28T18:48:47.648Z,2.58
2022-11-28T18:51:15.288Z,2.40
2022-11-28T18:53:50.450Z,2.41
2022-11-28T18:56:17.413Z,2.14
2022-11-28T18:58:49.402Z,2.42
2022-11-28T19:01:25.142Z,2.70
2022-11-28T19:04:02.764Z,2.56
2022-11-28T19:51:12.406Z,2.98
2022-11-28T19:53:43.849Z,3.08
2022-11-28T19:56:23.485Z,3.26
2022-11-28T19:58:51.453Z,2.74
2022-11-28T20:01:23.758Z,2.39
2022-11-28T20:03:51.097Z,2.62
2022-11-28T20:06:24.016Z,2.00
2022-11-28T20:09:14.212Z,2.05
2022-11-28T20:31:52.469Z,2.87
2022-11-28T20:34:22.706Z,2.61
2022-11-28T21:06:16.300Z,2.93
2022-11-28T21:08:45.280Z,3.08
2022-11-28T21:11:43.509Z,3.12
2022-11-28T21:14:07.685Z,2.34
2022-11-28T21:16:37.457Z,2.28
2022-11-28T21:19:10.521Z,3.17
2022-11-28T21:21:39.493Z,3.73
2022-11-28T21:24:12.475Z,3.05
2022-11-28T21:26:42.367Z,2.97
2022-11-28T21:29:13.001Z,3.44
2022-11-28T21:34:22.755Z,2.69
2022-11-28T21:36:49.376Z,2.88
2022-11-28T21:42:03.146Z,2.44
2022-11-28T21:44:29.738Z,2.62
2022-11-28T21:46:56.599Z,3.10
2022-11-28T21:49:23.204Z,2.91
2022-11-28T22:27:59.940Z,2.53
2022-11-28T22:30:26.555Z,2.62
2022-11-28T22:32:53.131Z,2.96
2022-11-28T22:43:05.871Z,2.37
2022-11-28T22:45:32.612Z,2.00
2022-11-28T22:47:59.334Z,2.86
2022-11-28T22:50:28.909Z,2.59
2022-11-28T22:52:55.548Z,2.42
2022-11-28T23:59:33.746Z,2.71
